sensor_id;sensor_type;location;lat;lon;timestamp;P1;durP1;ratioP1;P2;durP2;ratioP2
73428;SDS011;61643;49.564;17.412;2023-02-15T00:00:04;17.75;;;7.70;;
73428;SDS011;61643;49.564;17.412;2023-02-15T00:02:31;18.95;;;7.60;;
73428;SDS011;61643;49.564;17.412;2023-02-15T00:04:57;17.98;;;7.90;;
73428;SDS011;61643;49.564;17.412;2023-02-15T00:07:23;18.27;;;8.27;;
73428;SDS011;61643;49.564;17.412;2023-02-15T00:09:49;17.27;;;7.90;;
73428;SDS011;61643;49.564;17.412;2023-02-15T00:12:15;18.80;;;8.43;;
73428;SDS011;61643;49.564;17.412;2023-02-15T00:14:41;19.52;;;8.32;;
73428;SDS011;61643;49.564;17.412;2023-02-15T00:17:07;17.35;;;7.65;;
73428;SDS011;61643;49.564;17.412;2023-02-15T00:19:33;20.80;;;8.27;;
73428;SDS011;61643;49.564;17.412;2023-02-15T00:21:59;18.70;;;7.85;;
73428;SDS011;61643;49.564;17.412;2023-02-15T00:24:25;18.67;;;8.10;;
73428;SDS011;61643;49.564;17.412;2023-02-15T00:26:51;16.13;;;6.97;;
73428;SDS011;61643;49.564;17.412;2023-02-15T00:29:18;17.38;;;7.47;;
73428;SDS011;61643;49.564;17.412;2023-02-15T00:31:44;14.15;;;6.32;;
73428;SDS011;61643;49.564;17.412;2023-02-15T00:34:15;17.85;;;8.15;;
73428;SDS011;61643;49.564;17.412;2023-02-15T00:36:46;15.52;;;7.45;;
73428;SDS011;61643;49.564;17.412;2023-02-15T00:39:13;18.33;;;7.82;;
73428;SDS011;61643;49.564;17.412;2023-02-15T00:41:40;23.02;;;8.20;;
73428;SDS011;61643;49.564;17.412;2023-02-15T00:44:06;21.75;;;8.68;;
73428;SDS011;61643;49.564;17.412;2023-02-15T00:46:32;19.25;;;8.02;;
73428;SDS011;61643;49.564;17.412;2023-02-15T00:48:59;21.60;;;8.60;;
73428;SDS011;61643;49.564;17.412;2023-02-15T00:51:25;27.80;;;8.85;;
73428;SDS011;61643;49.564;17.412;2023-02-15T00:53:51;25.30;;;9.60;;
73428;SDS011;61643;49.564;17.412;2023-02-15T00:56:18;27.98;;;10.05;;
73428;SDS011;61643;49.564;17.412;2023-02-15T00:58:44;27.35;;;10.77;;
73428;SDS011;61643;49.564;17.412;2023-02-15T01:01:11;29.58;;;10.10;;
73428;SDS011;61643;49.564;17.412;2023-02-15T01:03:39;30.20;;;10.60;;
73428;SDS011;61643;49.564;17.412;2023-02-15T01:06:07;30.95;;;10.93;;
73428;SDS011;61643;49.564;17.412;2023-02-15T01:08:33;41.13;;;12.50;;
73428;SDS011;61643;49.564;17.412;2023-02-15T01:11:06;35.10;;;12.02;;
73428;SDS011;61643;49.564;17.412;2023-02-15T01:13:40;34.05;;;11.52;;
73428;SDS011;61643;49.564;17.412;2023-02-15T01:16:07;35.10;;;12.73;;
73428;SDS011;61643;49.564;17.412;2023-02-15T01:18:34;31.52;;;11.10;;
73428;SDS011;61643;49.564;17.412;2023-02-15T01:21:08;35.55;;;11.88;;
73428;SDS011;61643;49.564;17.412;2023-02-15T01:23:39;29.30;;;11.15;;
73428;SDS011;61643;49.564;17.412;2023-02-15T01:26:06;31.50;;;11.52;;
73428;SDS011;61643;49.564;17.412;2023-02-15T01:28:33;28.15;;;11.75;;
73428;SDS011;61643;49.564;17.412;2023-02-15T01:31:03;33.65;;;12.02;;
73428;SDS011;61643;49.564;17.412;2023-02-15T01:33:33;28.95;;;10.63;;
73428;SDS011;61643;49.564;17.412;2023-02-15T01:36:00;27.92;;;11.10;;
73428;SDS011;61643;49.564;17.412;2023-02-15T01:38:26;28.42;;;11.07;;
73428;SDS011;61643;49.564;17.412;2023-02-15T01:40:53;34.38;;;11.20;;
73428;SDS011;61643;49.564;17.412;2023-02-15T01:43:40;26.77;;;11.30;;
73428;SDS011;61643;49.564;17.412;2023-02-15T01:46:11;24.65;;;10.05;;
73428;SDS011;61643;49.564;17.412;2023-02-15T01:48:44;28.50;;;10.80;;
73428;SDS011;61643;49.564;17.412;2023-02-15T01:51:14;30.17;;;11.38;;
73428;SDS011;61643;49.564;17.412;2023-02-15T01:54:07;28.98;;;11.27;;
73428;SDS011;61643;49.564;17.412;2023-02-15T01:56:37;27.65;;;11.10;;
73428;SDS011;61643;49.564;17.412;2023-02-15T01:59:07;27.05;;;10.65;;
73428;SDS011;61643;49.564;17.412;2023-02-15T02:01:37;27.95;;;10.55;;
73428;SDS011;61643;49.564;17.412;2023-02-15T02:04:09;27.20;;;10.15;;
73428;SDS011;61643;49.564;17.412;2023-02-15T02:06:48;27.15;;;10.77;;
73428;SDS011;61643;49.564;17.412;2023-02-15T02:09:16;30.02;;;11.65;;
73428;SDS011;61643;49.564;17.412;2023-02-15T02:11:42;30.73;;;11.68;;
73428;SDS011;61643;49.564;17.412;2023-02-15T02:14:12;27.70;;;10.90;;
73428;SDS011;61643;49.564;17.412;2023-02-15T02:25:17;29.52;;;11.63;;
73428;SDS011;61643;49.564;17.412;2023-02-15T02:28:29;28.08;;;11.55;;
73428;SDS011;61643;49.564;17.412;2023-02-15T02:34:23;35.58;;;12.52;;
73428;SDS011;61643;49.564;17.412;2023-02-15T02:42:56;34.85;;;11.93;;
73428;SDS011;61643;49.564;17.412;2023-02-15T02:45:32;30.58;;;11.88;;
73428;SDS011;61643;49.564;17.412;2023-02-15T02:48:11;36.72;;;13.02;;
73428;SDS011;61643;49.564;17.412;2023-02-15T02:50:40;34.58;;;12.25;;
73428;SDS011;61643;49.564;17.412;2023-02-15T02:53:06;31.50;;;11.63;;
73428;SDS011;61643;49.564;17.412;2023-02-15T03:00:38;28.17;;;11.63;;
73428;SDS011;61643;49.564;17.412;2023-02-15T03:03:11;36.30;;;13.30;;
73428;SDS011;61643;49.564;17.412;2023-02-15T03:05:44;33.65;;;13.02;;
73428;SDS011;61643;49.564;17.412;2023-02-15T03:08:14;38.63;;;13.63;;
73428;SDS011;61643;49.564;17.412;2023-02-15T03:10:48;35.50;;;14.70;;
73428;SDS011;61643;49.564;17.412;2023-02-15T03:13:18;38.17;;;13.63;;
73428;SDS011;61643;49.564;17.412;2023-02-15T03:15:44;38.95;;;13.73;;
73428;SDS011;61643;49.564;17.412;2023-02-15T03:18:31;37.17;;;13.90;;
73428;SDS011;61643;49.564;17.412;2023-02-15T03:21:03;35.22;;;13.32;;
73428;SDS011;61643;49.564;17.412;2023-02-15T03:23:31;36.88;;;13.68;;
73428;SDS011;61643;49.564;17.412;2023-02-15T03:25:59;32.63;;;13.25;;
73428;SDS011;61643;49.564;17.412;2023-02-15T03:28:29;55.92;;;19.95;;
73428;SDS011;61643;49.564;17.412;2023-02-15T03:31:01;48.05;;;15.95;;
73428;SDS011;61643;49.564;17.412;2023-02-15T03:33:29;45.53;;;16.27;;
73428;SDS011;61643;49.564;17.412;2023-02-15T03:38:25;39.70;;;15.63;;
73428;SDS011;61643;49.564;17.412;2023-02-15T03:40:59;39.55;;;14.48;;
73428;SDS011;61643;49.564;17.412;2023-02-15T03:43:51;37.28;;;13.93;;
73428;SDS011;61643;49.564;17.412;2023-02-15T03:46:26;35.05;;;13.60;;
73428;SDS011;61643;49.564;17.412;2023-02-15T03:49:07;36.30;;;14.68;;
73428;SDS011;61643;49.564;17.412;2023-02-15T03:51:54;35.55;;;12.85;;
73428;SDS011;61643;49.564;17.412;2023-02-15T03:54:27;38.72;;;14.60;;
73428;SDS011;61643;49.564;17.412;2023-02-15T04:00:03;37.50;;;14.27;;
73428;SDS011;61643;49.564;17.412;2023-02-15T04:05:33;33.10;;;13.13;;
73428;SDS011;61643;49.564;17.412;2023-02-15T04:07:59;36.22;;;13.57;;
73428;SDS011;61643;49.564;17.412;2023-02-15T04:10:25;38.28;;;13.82;;
73428;SDS011;61643;49.564;17.412;2023-02-15T04:13:10;38.97;;;14.15;;
73428;SDS011;61643;49.564;17.412;2023-02-15T04:15:36;37.38;;;13.10;;
73428;SDS011;61643;49.564;17.412;2023-02-15T04:18:20;35.75;;;12.90;;
73428;SDS011;61643;49.564;17.412;2023-02-15T04:20:46;37.85;;;13.85;;
73428;SDS011;61643;49.564;17.412;2023-02-15T04:23:31;37.08;;;13.88;;
73428;SDS011;61643;49.564;17.412;2023-02-15T04:26:16;38.00;;;14.60;;
73428;SDS011;61643;49.564;17.412;2023-02-15T04:28:42;44.75;;;15.18;;
73428;SDS011;61643;49.564;17.412;2023-02-15T04:31:08;40.30;;;14.52;;
73428;SDS011;61643;49.564;17.412;2023-02-15T04:33:34;40.67;;;13.38;;
73428;SDS011;61643;49.564;17.412;2023-02-15T04:36:02;39.67;;;14.70;;
73428;SDS011;61643;49.564;17.412;2023-02-15T04:38:29;35.78;;;13.40;;
73428;SDS011;61643;49.564;17.412;2023-02-15T04:40:55;34.60;;;11.45;;
73428;SDS011;61643;49.564;17.412;2023-02-15T04:43:21;40.50;;;14.50;;
73428;SDS011;61643;49.564;17.412;2023-02-15T04:45:50;34.45;;;13.48;;
73428;SDS011;61643;49.564;17.412;2023-02-15T04:48:17;32.08;;;12.93;;
73428;SDS011;61643;49.564;17.412;2023-02-15T04:50:43;34.45;;;12.02;;
73428;SDS011;61643;49.564;17.412;2023-02-15T04:53:10;32.85;;;14.05;;
73428;SDS011;61643;49.564;17.412;2023-02-15T04:55:36;43.38;;;15.40;;
73428;SDS011;61643;49.564;17.412;2023-02-15T04:58:02;41.55;;;14.93;;
73428;SDS011;61643;49.564;17.412;2023-02-15T05:00:28;37.53;;;14.65;;
73428;SDS011;61643;49.564;17.412;2023-02-15T05:02:54;41.25;;;15.18;;
73428;SDS011;61643;49.564;17.412;2023-02-15T05:05:20;42.15;;;14.50;;
73428;SDS011;61643;49.564;17.412;2023-02-15T05:07:46;39.60;;;14.63;;
73428;SDS011;61643;49.564;17.412;2023-02-15T05:10:12;35.90;;;13.65;;
73428;SDS011;61643;49.564;17.412;2023-02-15T05:12:38;37.92;;;15.18;;
73428;SDS011;61643;49.564;17.412;2023-02-15T05:15:04;38.72;;;14.63;;
73428;SDS011;61643;49.564;17.412;2023-02-15T05:17:30;40.10;;;14.73;;
73428;SDS011;61643;49.564;17.412;2023-02-15T05:19:56;41.08;;;14.68;;
73428;SDS011;61643;49.564;17.412;2023-02-15T05:22:22;36.90;;;14.88;;
73428;SDS011;61643;49.564;17.412;2023-02-15T05:24:48;38.97;;;14.85;;
73428;SDS011;61643;49.564;17.412;2023-02-15T05:27:32;43.67;;;14.57;;
73428;SDS011;61643;49.564;17.412;2023-02-15T05:30:16;40.63;;;13.95;;
73428;SDS011;61643;49.564;17.412;2023-02-15T05:32:42;39.25;;;14.82;;
73428;SDS011;61643;49.564;17.412;2023-02-15T05:35:11;45.08;;;15.90;;
73428;SDS011;61643;49.564;17.412;2023-02-15T05:37:40;38.92;;;15.15;;
73428;SDS011;61643;49.564;17.412;2023-02-15T05:40:06;36.45;;;13.60;;
73428;SDS011;61643;49.564;17.412;2023-02-15T05:42:33;38.45;;;15.55;;
73428;SDS011;61643;49.564;17.412;2023-02-15T05:44:59;42.90;;;15.80;;
73428;SDS011;61643;49.564;17.412;2023-02-15T05:47:25;41.25;;;14.77;;
73428;SDS011;61643;49.564;17.412;2023-02-15T05:49:51;39.28;;;15.43;;
73428;SDS011;61643;49.564;17.412;2023-02-15T05:52:17;39.38;;;14.48;;
73428;SDS011;61643;49.564;17.412;2023-02-15T05:54:43;40.97;;;15.00;;
73428;SDS011;61643;49.564;17.412;2023-02-15T05:57:09;43.55;;;15.63;;
73428;SDS011;61643;49.564;17.412;2023-02-15T05:59:35;39.78;;;14.80;;
73428;SDS011;61643;49.564;17.412;2023-02-15T06:02:01;41.90;;;15.15;;
73428;SDS011;61643;49.564;17.412;2023-02-15T06:04:27;40.97;;;15.65;;
73428;SDS011;61643;49.564;17.412;2023-02-15T06:06:53;39.95;;;15.23;;
73428;SDS011;61643;49.564;17.412;2023-02-15T06:09:19;37.33;;;15.18;;
73428;SDS011;61643;49.564;17.412;2023-02-15T06:11:45;38.92;;;15.40;;
73428;SDS011;61643;49.564;17.412;2023-02-15T06:14:11;41.33;;;16.80;;
73428;SDS011;61643;49.564;17.412;2023-02-15T06:16:37;42.33;;;17.27;;
73428;SDS011;61643;49.564;17.412;2023-02-15T06:19:03;44.22;;;18.33;;
73428;SDS011;61643;49.564;17.412;2023-02-15T06:21:29;46.03;;;16.80;;
73428;SDS011;61643;49.564;17.412;2023-02-15T06:23:56;43.60;;;16.17;;
73428;SDS011;61643;49.564;17.412;2023-02-15T06:26:22;50.33;;;16.45;;
73428;SDS011;61643;49.564;17.412;2023-02-15T06:28:48;39.83;;;14.70;;
73428;SDS011;61643;49.564;17.412;2023-02-15T06:31:14;45.38;;;15.73;;
73428;SDS011;61643;49.564;17.412;2023-02-15T06:33:40;41.15;;;16.48;;
73428;SDS011;61643;49.564;17.412;2023-02-15T06:36:06;39.75;;;15.75;;
73428;SDS011;61643;49.564;17.412;2023-02-15T06:38:32;41.65;;;15.75;;
73428;SDS011;61643;49.564;17.412;2023-02-15T06:40:58;43.40;;;15.80;;
73428;SDS011;61643;49.564;17.412;2023-02-15T06:43:24;40.22;;;14.73;;
73428;SDS011;61643;49.564;17.412;2023-02-15T06:45:50;41.83;;;14.55;;
73428;SDS011;61643;49.564;17.412;2023-02-15T06:48:16;45.03;;;16.05;;
73428;SDS011;61643;49.564;17.412;2023-02-15T06:50:42;41.58;;;16.27;;
73428;SDS011;61643;49.564;17.412;2023-02-15T06:53:08;41.10;;;15.52;;
73428;SDS011;61643;49.564;17.412;2023-02-15T06:55:34;44.78;;;15.45;;
73428;SDS011;61643;49.564;17.412;2023-02-15T06:58:00;38.08;;;14.82;;
73428;SDS011;61643;49.564;17.412;2023-02-15T07:00:26;36.40;;;14.32;;
73428;SDS011;61643;49.564;17.412;2023-02-15T07:02:55;39.85;;;13.98;;
73428;SDS011;61643;49.564;17.412;2023-02-15T07:05:23;33.25;;;12.68;;
73428;SDS011;61643;49.564;17.412;2023-02-15T07:07:50;36.55;;;13.93;;
73428;SDS011;61643;49.564;17.412;2023-02-15T07:10:16;37.88;;;15.27;;
73428;SDS011;61643;49.564;17.412;2023-02-15T07:12:42;38.92;;;14.85;;
73428;SDS011;61643;49.564;17.412;2023-02-15T07:15:08;41.75;;;15.48;;
73428;SDS011;61643;49.564;17.412;2023-02-15T07:17:36;37.20;;;13.80;;
73428;SDS011;61643;49.564;17.412;2023-02-15T07:20:10;39.30;;;14.60;;
73428;SDS011;61643;49.564;17.412;2023-02-15T07:22:37;40.47;;;15.15;;
73428;SDS011;61643;49.564;17.412;2023-02-15T07:25:04;40.65;;;15.52;;
73428;SDS011;61643;49.564;17.412;2023-02-15T07:27:32;40.28;;;16.15;;
73428;SDS011;61643;49.564;17.412;2023-02-15T07:29:58;41.85;;;16.00;;
73428;SDS011;61643;49.564;17.412;2023-02-15T07:32:27;42.42;;;15.98;;
73428;SDS011;61643;49.564;17.412;2023-02-15T07:34:55;37.58;;;14.80;;
73428;SDS011;61643;49.564;17.412;2023-02-15T07:37:21;41.75;;;14.88;;
73428;SDS011;61643;49.564;17.412;2023-02-15T07:39:47;36.00;;;14.82;;
73428;SDS011;61643;49.564;17.412;2023-02-15T07:42:13;37.47;;;14.98;;
73428;SDS011;61643;49.564;17.412;2023-02-15T07:44:39;40.72;;;16.60;;
73428;SDS011;61643;49.564;17.412;2023-02-15T07:47:05;36.65;;;15.50;;
73428;SDS011;61643;49.564;17.412;2023-02-15T07:49:31;43.80;;;15.60;;
73428;SDS011;61643;49.564;17.412;2023-02-15T07:51:57;39.92;;;16.13;;
73428;SDS011;61643;49.564;17.412;2023-02-15T07:54:23;41.95;;;16.48;;
73428;SDS011;61643;49.564;17.412;2023-02-15T07:56:49;37.58;;;15.80;;
73428;SDS011;61643;49.564;17.412;2023-02-15T07:59:14;44.72;;;17.00;;
73428;SDS011;61643;49.564;17.412;2023-02-15T08:01:40;39.33;;;15.15;;
73428;SDS011;61643;49.564;17.412;2023-02-15T08:04:07;43.05;;;15.73;;
73428;SDS011;61643;49.564;17.412;2023-02-15T08:06:35;39.33;;;16.05;;
73428;SDS011;61643;49.564;17.412;2023-02-15T08:09:06;34.80;;;14.52;;
73428;SDS011;61643;49.564;17.412;2023-02-15T08:11:36;43.92;;;17.40;;
73428;SDS011;61643;49.564;17.412;2023-02-15T08:16:37;38.90;;;15.90;;
73428;SDS011;61643;49.564;17.412;2023-02-15T08:19:12;36.08;;;15.20;;
73428;SDS011;61643;49.564;17.412;2023-02-15T08:21:41;37.58;;;15.88;;
73428;SDS011;61643;49.564;17.412;2023-02-15T08:24:09;35.03;;;15.20;;
73428;SDS011;61643;49.564;17.412;2023-02-15T08:26:36;35.50;;;14.40;;
73428;SDS011;61643;49.564;17.412;2023-02-15T08:29:04;37.30;;;15.13;;
73428;SDS011;61643;49.564;17.412;2023-02-15T08:31:32;37.13;;;15.43;;
73428;SDS011;61643;49.564;17.412;2023-02-15T08:33:58;38.20;;;14.48;;
73428;SDS011;61643;49.564;17.412;2023-02-15T08:36:28;36.97;;;14.90;;
73428;SDS011;61643;49.564;17.412;2023-02-15T08:38:57;37.85;;;16.20;;
73428;SDS011;61643;49.564;17.412;2023-02-15T08:41:25;36.42;;;15.82;;
73428;SDS011;61643;49.564;17.412;2023-02-15T08:43:57;32.67;;;15.07;;
73428;SDS011;61643;49.564;17.412;2023-02-15T08:48:51;32.83;;;14.05;;
73428;SDS011;61643;49.564;17.412;2023-02-15T08:51:18;37.58;;;15.10;;
73428;SDS011;61643;49.564;17.412;2023-02-15T08:53:50;34.22;;;15.00;;
73428;SDS011;61643;49.564;17.412;2023-02-15T08:58:45;36.25;;;14.27;;
73428;SDS011;61643;49.564;17.412;2023-02-15T09:01:15;35.42;;;14.70;;
73428;SDS011;61643;49.564;17.412;2023-02-15T09:03:44;32.58;;;14.93;;
73428;SDS011;61643;49.564;17.412;2023-02-15T09:06:11;38.03;;;14.85;;
73428;SDS011;61643;49.564;17.412;2023-02-15T09:08:38;41.30;;;16.73;;
73428;SDS011;61643;49.564;17.412;2023-02-15T09:13:35;35.28;;;15.00;;
73428;SDS011;61643;49.564;17.412;2023-02-15T09:16:02;36.72;;;16.20;;
73428;SDS011;61643;49.564;17.412;2023-02-15T09:18:34;37.10;;;14.65;;
73428;SDS011;61643;49.564;17.412;2023-02-15T09:21:06;38.78;;;16.42;;
73428;SDS011;61643;49.564;17.412;2023-02-15T09:23:34;37.35;;;15.43;;
73428;SDS011;61643;49.564;17.412;2023-02-15T09:26:01;35.70;;;16.52;;
73428;SDS011;61643;49.564;17.412;2023-02-15T09:28:31;41.25;;;16.58;;
73428;SDS011;61643;49.564;17.412;2023-02-15T09:31:17;35.72;;;14.95;;
73428;SDS011;61643;49.564;17.412;2023-02-15T09:33:45;38.38;;;16.30;;
73428;SDS011;61643;49.564;17.412;2023-02-15T09:36:19;38.03;;;16.90;;
73428;SDS011;61643;49.564;17.412;2023-02-15T09:38:47;42.05;;;16.65;;
73428;SDS011;61643;49.564;17.412;2023-02-15T09:44:24;38.35;;;15.20;;
73428;SDS011;61643;49.564;17.412;2023-02-15T09:50:08;37.53;;;15.80;;
73428;SDS011;61643;49.564;17.412;2023-02-15T10:01:02;43.53;;;16.73;;
73428;SDS011;61643;49.564;17.412;2023-02-15T10:11:40;38.67;;;14.45;;
73428;SDS011;61643;49.564;17.412;2023-02-15T10:20:01;45.22;;;17.35;;
73428;SDS011;61643;49.564;17.412;2023-02-15T10:28:35;37.60;;;15.60;;
73428;SDS011;61643;49.564;17.412;2023-02-15T10:31:26;43.97;;;15.63;;
73428;SDS011;61643;49.564;17.412;2023-02-15T10:34:15;32.17;;;12.98;;
73428;SDS011;61643;49.564;17.412;2023-02-15T10:45:00;32.05;;;13.05;;
73428;SDS011;61643;49.564;17.412;2023-02-15T10:47:43;32.25;;;13.48;;
73428;SDS011;61643;49.564;17.412;2023-02-15T10:50:38;30.73;;;12.85;;
73428;SDS011;61643;49.564;17.412;2023-02-15T11:01:34;30.58;;;13.20;;
73428;SDS011;61643;49.564;17.412;2023-02-15T11:06:41;29.45;;;12.27;;
73428;SDS011;61643;49.564;17.412;2023-02-15T11:09:14;34.15;;;13.52;;
73428;SDS011;61643;49.564;17.412;2023-02-15T11:11:44;29.45;;;12.27;;
73428;SDS011;61643;49.564;17.412;2023-02-15T11:14:15;33.05;;;13.25;;
73428;SDS011;61643;49.564;17.412;2023-02-15T11:16:49;35.35;;;14.40;;
73428;SDS011;61643;49.564;17.412;2023-02-15T11:19:20;31.15;;;14.32;;
73428;SDS011;61643;49.564;17.412;2023-02-15T11:21:50;35.95;;;14.63;;
73428;SDS011;61643;49.564;17.412;2023-02-15T11:24:20;32.65;;;14.30;;
73428;SDS011;61643;49.564;17.412;2023-02-15T11:27:25;35.90;;;14.55;;
73428;SDS011;61643;49.564;17.412;2023-02-15T11:29:52;37.13;;;15.00;;
73428;SDS011;61643;49.564;17.412;2023-02-15T11:32:33;40.00;;;15.02;;
73428;SDS011;61643;49.564;17.412;2023-02-15T11:37:51;43.72;;;18.00;;
73428;SDS011;61643;49.564;17.412;2023-02-15T11:40:26;38.30;;;15.27;;
73428;SDS011;61643;49.564;17.412;2023-02-15T11:43:03;37.25;;;14.68;;
73428;SDS011;61643;49.564;17.412;2023-02-15T11:45:36;34.13;;;14.50;;
73428;SDS011;61643;49.564;17.412;2023-02-15T11:48:10;36.70;;;14.18;;
73428;SDS011;61643;49.564;17.412;2023-02-15T11:50:38;33.78;;;14.57;;
73428;SDS011;61643;49.564;17.412;2023-02-15T11:53:15;34.72;;;14.02;;
73428;SDS011;61643;49.564;17.412;2023-02-15T11:55:45;39.50;;;15.45;;
73428;SDS011;61643;49.564;17.412;2023-02-15T12:00:47;35.03;;;13.85;;
73428;SDS011;61643;49.564;17.412;2023-02-15T12:03:26;37.33;;;15.50;;
73428;SDS011;61643;49.564;17.412;2023-02-15T12:06:02;66.28;;;25.25;;
73428;SDS011;61643;49.564;17.412;2023-02-15T12:08:40;36.97;;;14.85;;
73428;SDS011;61643;49.564;17.412;2023-02-15T12:11:12;33.13;;;13.90;;
73428;SDS011;61643;49.564;17.412;2023-02-15T12:13:56;37.00;;;15.45;;
73428;SDS011;61643;49.564;17.412;2023-02-15T12:16:25;52.83;;;20.90;;
73428;SDS011;61643;49.564;17.412;2023-02-15T12:21:25;38.58;;;15.20;;
73428;SDS011;61643;49.564;17.412;2023-02-15T12:24:09;38.13;;;16.15;;
73428;SDS011;61643;49.564;17.412;2023-02-15T12:26:37;36.50;;;15.45;;
73428;SDS011;61643;49.564;17.412;2023-02-15T12:29:07;35.17;;;14.77;;
73428;SDS011;61643;49.564;17.412;2023-02-15T12:31:43;36.13;;;14.88;;
73428;SDS011;61643;49.564;17.412;2023-02-15T12:34:12;37.13;;;15.48;;
73428;SDS011;61643;49.564;17.412;2023-02-15T12:36:49;37.65;;;16.08;;
73428;SDS011;61643;49.564;17.412;2023-02-15T12:39:32;34.50;;;14.10;;
73428;SDS011;61643;49.564;17.412;2023-02-15T12:44:26;37.53;;;14.43;;
73428;SDS011;61643;49.564;17.412;2023-02-15T12:46:59;35.25;;;15.32;;
73428;SDS011;61643;49.564;17.412;2023-02-15T12:49:25;37.63;;;15.40;;
73428;SDS011;61643;49.564;17.412;2023-02-15T12:51:54;35.47;;;15.10;;
73428;SDS011;61643;49.564;17.412;2023-02-15T12:54:35;36.60;;;15.18;;
73428;SDS011;61643;49.564;17.412;2023-02-15T12:59:52;36.75;;;14.27;;
73428;SDS011;61643;49.564;17.412;2023-02-15T13:02:22;37.92;;;15.75;;
73428;SDS011;61643;49.564;17.412;2023-02-15T13:04:54;35.33;;;14.73;;
73428;SDS011;61643;49.564;17.412;2023-02-15T13:07:22;37.90;;;15.38;;
73428;SDS011;61643;49.564;17.412;2023-02-15T13:09:50;39.53;;;15.80;;
73428;SDS011;61643;49.564;17.412;2023-02-15T13:12:23;37.33;;;15.68;;
73428;SDS011;61643;49.564;17.412;2023-02-15T13:14:54;36.97;;;14.82;;
73428;SDS011;61643;49.564;17.412;2023-02-15T13:17:24;34.08;;;14.82;;
73428;SDS011;61643;49.564;17.412;2023-02-15T13:19:55;34.97;;;15.10;;
73428;SDS011;61643;49.564;17.412;2023-02-15T13:22:28;35.53;;;14.98;;
73428;SDS011;61643;49.564;17.412;2023-02-15T13:25:05;38.40;;;16.60;;
73428;SDS011;61643;49.564;17.412;2023-02-15T13:27:38;43.42;;;17.63;;
73428;SDS011;61643;49.564;17.412;2023-02-15T13:32:51;37.22;;;15.48;;
73428;SDS011;61643;49.564;17.412;2023-02-15T13:35:21;37.13;;;14.88;;
73428;SDS011;61643;49.564;17.412;2023-02-15T13:38:07;39.20;;;15.50;;
73428;SDS011;61643;49.564;17.412;2023-02-15T13:40:51;38.42;;;16.00;;
73428;SDS011;61643;49.564;17.412;2023-02-15T13:54:46;38.00;;;15.20;;
73428;SDS011;61643;49.564;17.412;2023-02-15T14:11:36;37.67;;;14.80;;
73428;SDS011;61643;49.564;17.412;2023-02-15T14:14:22;36.25;;;14.73;;
73428;SDS011;61643;49.564;17.412;2023-02-15T14:20:22;36.88;;;15.27;;
73428;SDS011;61643;49.564;17.412;2023-02-15T14:31:27;37.03;;;14.70;;
73428;SDS011;61643;49.564;17.412;2023-02-15T14:33:58;34.47;;;14.75;;
73428;SDS011;61643;49.564;17.412;2023-02-15T14:36:25;35.22;;;15.75;;
73428;SDS011;61643;49.564;17.412;2023-02-15T14:42:05;37.22;;;15.68;;
73428;SDS011;61643;49.564;17.412;2023-02-15T14:44:53;37.47;;;15.48;;
73428;SDS011;61643;49.564;17.412;2023-02-15T14:47:37;34.70;;;15.10;;
73428;SDS011;61643;49.564;17.412;2023-02-15T14:50:50;37.42;;;15.65;;
73428;SDS011;61643;49.564;17.412;2023-02-15T15:04:00;37.15;;;16.25;;
73428;SDS011;61643;49.564;17.412;2023-02-15T15:06:56;40.35;;;17.20;;
73428;SDS011;61643;49.564;17.412;2023-02-15T15:09:29;36.83;;;15.57;;
73428;SDS011;61643;49.564;17.412;2023-02-15T15:14:46;45.28;;;19.10;;
73428;SDS011;61643;49.564;17.412;2023-02-15T15:17:51;55.13;;;21.77;;
73428;SDS011;61643;49.564;17.412;2023-02-15T15:22:39;43.55;;;17.13;;
73428;SDS011;61643;49.564;17.412;2023-02-15T15:27:55;36.75;;;15.55;;
73428;SDS011;61643;49.564;17.412;2023-02-15T15:38:23;32.03;;;13.68;;
73428;SDS011;61643;49.564;17.412;2023-02-15T15:49:50;36.65;;;14.60;;
73428;SDS011;61643;49.564;17.412;2023-02-15T15:52:21;31.77;;;13.70;;
73428;SDS011;61643;49.564;17.412;2023-02-15T15:54:50;35.78;;;14.25;;
73428;SDS011;61643;49.564;17.412;2023-02-15T15:57:33;34.20;;;14.02;;
73428;SDS011;61643;49.564;17.412;2023-02-15T16:00:04;33.65;;;14.63;;
73428;SDS011;61643;49.564;17.412;2023-02-15T16:02:51;29.63;;;12.68;;
73428;SDS011;61643;49.564;17.412;2023-02-15T16:05:17;33.67;;;14.75;;
73428;SDS011;61643;49.564;17.412;2023-02-15T16:07:43;36.03;;;15.63;;
73428;SDS011;61643;49.564;17.412;2023-02-15T16:10:28;36.40;;;15.77;;
73428;SDS011;61643;49.564;17.412;2023-02-15T16:12:58;35.28;;;13.95;;
73428;SDS011;61643;49.564;17.412;2023-02-15T16:15:25;33.65;;;13.60;;
73428;SDS011;61643;49.564;17.412;2023-02-15T16:17:57;32.67;;;13.90;;
73428;SDS011;61643;49.564;17.412;2023-02-15T16:20:35;32.67;;;14.48;;
73428;SDS011;61643;49.564;17.412;2023-02-15T16:23:12;37.03;;;15.95;;
73428;SDS011;61643;49.564;17.412;2023-02-15T16:26:14;38.60;;;15.77;;
73428;SDS011;61643;49.564;17.412;2023-02-15T16:28:47;35.35;;;14.20;;
73428;SDS011;61643;49.564;17.412;2023-02-15T16:31:15;36.53;;;14.27;;
73428;SDS011;61643;49.564;17.412;2023-02-15T16:33:42;34.53;;;13.55;;
73428;SDS011;61643;49.564;17.412;2023-02-15T16:36:11;37.42;;;15.18;;
73428;SDS011;61643;49.564;17.412;2023-02-15T16:41:12;32.10;;;13.82;;
73428;SDS011;61643;49.564;17.412;2023-02-15T16:43:41;56.63;;;22.95;;
73428;SDS011;61643;49.564;17.412;2023-02-15T16:46:12;48.80;;;19.83;;
73428;SDS011;61643;49.564;17.412;2023-02-15T16:48:46;41.30;;;17.20;;
73428;SDS011;61643;49.564;17.412;2023-02-15T16:51:21;39.13;;;17.25;;
73428;SDS011;61643;49.564;17.412;2023-02-15T16:53:50;49.25;;;19.20;;
73428;SDS011;61643;49.564;17.412;2023-02-15T16:56:22;50.05;;;20.52;;
73428;SDS011;61643;49.564;17.412;2023-02-15T16:58:50;53.42;;;23.15;;
73428;SDS011;61643;49.564;17.412;2023-02-15T17:01:19;54.88;;;22.98;;
73428;SDS011;61643;49.564;17.412;2023-02-15T17:03:49;65.07;;;24.60;;
73428;SDS011;61643;49.564;17.412;2023-02-15T17:06:23;63.15;;;26.75;;
73428;SDS011;61643;49.564;17.412;2023-02-15T17:09:04;67.45;;;27.30;;
73428;SDS011;61643;49.564;17.412;2023-02-15T17:11:35;63.22;;;26.77;;
73428;SDS011;61643;49.564;17.412;2023-02-15T17:16:35;114.70;;;49.85;;
73428;SDS011;61643;49.564;17.412;2023-02-15T17:19:07;103.63;;;46.67;;
73428;SDS011;61643;49.564;17.412;2023-02-15T17:21:45;123.30;;;50.72;;
73428;SDS011;61643;49.564;17.412;2023-02-15T17:24:19;114.93;;;49.83;;
73428;SDS011;61643;49.564;17.412;2023-02-15T17:26:54;115.45;;;48.75;;
73428;SDS011;61643;49.564;17.412;2023-02-15T17:31:59;78.30;;;35.08;;
73428;SDS011;61643;49.564;17.412;2023-02-15T17:35:00;92.53;;;40.90;;
73428;SDS011;61643;49.564;17.412;2023-02-15T17:40:19;82.13;;;36.75;;
73428;SDS011;61643;49.564;17.412;2023-02-15T17:42:53;83.70;;;35.90;;
73428;SDS011;61643;49.564;17.412;2023-02-15T17:45:19;83.40;;;35.28;;
73428;SDS011;61643;49.564;17.412;2023-02-15T17:47:47;82.72;;;34.88;;